Time;durP1;ratioP1;P1;durP2;ratioP2;P2;SDS_P1;SDS_P2;PMS_P1;PMS_P2;Temp;Humidity;BMP_temperature;BMP_pressure;BME280_temperature;BME280_humidity;BME280_pressure;Samples;Min_cycle;Max_cycle;Signal;HPM_P1;HPM_P2
2021/08/07 00:02:02;;;;;;;8.35;4.68;;;;;;;17.45;100.00;97334.59;5052189;28;20029;-86
2021/08/07 00:04:28;;;;;;;9.65;5.07;;;;;;;17.47;100.00;97334.25;5052366;28;20056;-83
2021/08/07 00:06:53;;;;;;;9.32;4.07;;;;;;;17.60;100.00;97331.06;5049947;28;20082;-85
2021/08/07 00:09:19;;;;;;;6.65;3.25;;;;;;;17.58;100.00;97338.94;5049904;28;20032;-83
2021/08/07 00:11:45;;;;;;;5.30;3.00;;;;;;;17.59;100.00;97335.03;5051397;28;20032;-84
2021/08/07 00:14:10;;;;;;;9.00;4.68;;;;;;;17.75;100.00;97343.31;5050253;28;20024;-83
2021/08/07 00:16:36;;;;;;;7.70;3.78;;;;;;;17.53;100.00;97341.13;5053299;28;20123;-83
2021/08/07 00:19:01;;;;;;;4.97;3.28;;;;;;;17.68;100.00;97348.66;5054389;28;20032;-84
2021/08/07 00:21:27;;;;;;;4.25;3.28;;;;;;;17.63;100.00;97337.88;5053636;28;20145;-83
2021/08/07 00:23:52;;;;;;;3.90;3.05;;;;;;;17.68;100.00;97359.72;5054387;28;20029;-83
2021/08/07 00:26:18;;;;;;;3.47;3.10;;;;;;;17.61;100.00;97354.00;5055434;28;20477;-85
2021/08/07 00:28:43;;;;;;;7.90;4.18;;;;;;;17.49;100.00;97368.69;5055714;28;20025;-83
2021/08/07 00:31:09;;;;;;;6.60;3.05;;;;;;;17.35;100.00;97356.47;5053834;28;20029;-83
2021/08/07 00:33:36;;;;;;;7.28;3.10;;;;;;;17.30;100.00;97359.47;5054109;28;20120;-85
2021/08/07 00:36:01;;;;;;;6.32;3.63;;;;;;;17.32;100.00;97359.94;5053946;28;20036;-83
2021/08/07 00:38:26;;;;;;;7.38;3.42;;;;;;;17.38;100.00;97362.09;5054243;28;20033;-84
2021/08/07 00:40:52;;;;;;;6.15;3.55;;;;;;;17.37;100.00;97354.13;5053875;28;20051;-87
2021/08/07 00:43:18;;;;;;;5.70;3.28;;;;;;;17.37;100.00;97349.41;5055598;28;20021;-86
2021/08/07 00:45:43;;;;;;;10.05;3.55;;;;;;;17.49;100.00;97356.81;5054243;28;20029;-85
2021/08/07 00:48:10;;;;;;;4.40;3.15;;;;;;;17.31;100.00;97341.72;5054681;28;20106;-87
2021/08/07 00:50:36;;;;;;;4.45;2.85;;;;;;;17.38;100.00;97355.75;5057067;28;20036;-85
2021/08/07 00:53:03;;;;;;;6.78;3.30;;;;;;;17.33;100.00;97344.94;5059672;28;20025;-84
2021/08/07 00:55:29;;;;;;;6.07;3.05;;;;;;;17.36;100.00;97352.50;5053696;28;20029;-84
2021/08/07 00:57:54;;;;;;;3.88;3.30;;;;;;;17.51;100.00;97354.53;5054912;28;20568;-85
2021/08/07 01:00:19;;;;;;;4.88;2.72;;;;;;;17.41;100.00;97360.56;5053491;28;20059;-82
2021/08/07 01:02:57;;;;;;;7.53;3.38;;;;;;;17.46;100.00;97352.00;5052628;28;20029;-85
2021/08/07 01:05:34;;;;;;;7.05;4.07;;;;;;;17.38;100.00;97351.03;5053051;28;20459;-86
2021/08/07 01:08:09;;;;;;;4.63;3.22;;;;;;;17.23;100.00;97364.81;5054190;28;20029;-80
2021/08/07 01:10:49;;;;;;;4.22;3.45;;;;;;;17.13;100.00;97366.91;5052488;28;20033;-82
2021/08/07 01:13:28;;;;;;;7.38;3.90;;;;;;;17.46;100.00;97363.06;5052495;28;20057;-84
2021/08/07 01:16:01;;;;;;;6.43;3.58;;;;;;;17.51;100.00;97365.59;5053928;28;20517;-82
2021/08/07 01:18:28;;;;;;;7.82;3.25;;;;;;;17.35;100.00;97362.00;5052188;28;20028;-80
2021/08/07 01:20:56;;;;;;;5.65;3.45;;;;;;;17.41;100.00;97360.56;5054270;28;20088;-81
2021/08/07 01:23:21;;;;;;;5.68;3.38;;;;;;;17.28;100.00;97351.53;5054312;28;20058;-82
2021/08/07 01:26:14;;;;;;;4.40;3.10;;;;;;;17.39;100.00;97368.41;5053055;28;20029;-86
2021/08/07 01:28:43;;;;;;;5.45;3.78;;;;;;;17.28;100.00;97353.50;5052753;28;20029;-84
2021/08/07 01:31:12;;;;;;;12.75;3.22;;;;;;;17.39;100.00;97357.34;5054296;28;20052;-82
2021/08/07 01:33:40;;;;;;;7.88;3.75;;;;;;;17.50;100.00;97369.50;5054382;28;20728;-84
2021/08/07 01:36:06;;;;;;;5.72;3.33;;;;;;;17.48;100.00;97366.28;5053222;28;20025;-83
2021/08/07 01:38:33;;;;;;;3.95;3.17;;;;;;;17.22;100.00;97352.94;5052969;28;20037;-82
2021/08/07 01:40:58;;;;;;;4.95;2.55;;;;;;;17.12;100.00;97359.78;5054152;28;20059;-82
2021/08/07 01:43:24;;;;;;;5.35;3.58;;;;;;;17.02;100.00;97371.34;5054015;28;20478;-82
2021/08/07 01:45:50;;;;;;;7.45;4.07;;;;;;;16.93;100.00;97356.88;5054011;28;20024;-85
2021/08/07 01:48:42;;;;;;;6.50;3.83;;;;;;;17.16;100.00;97372.91;5063218;28;20049;-83
2021/08/07 01:51:11;;;;;;;6.55;3.42;;;;;;;17.20;100.00;97369.06;5060301;28;20055;-84
2021/08/07 01:53:37;;;;;;;5.85;3.20;;;;;;;17.00;100.00;97368.13;5052558;28;20033;-82
2021/08/07 01:56:07;;;;;;;8.75;4.05;;;;;;;17.08;100.00;97367.16;5053854;28;20029;-85
2021/08/07 01:58:38;;;;;;;6.55;5.05;;;;;;;16.96;100.00;97377.47;5052195;28;20032;-81
2021/08/07 02:01:03;;;;;;;8.68;3.50;;;;;;;17.11;100.00;97385.81;5052073;28;20083;-82
2021/08/07 02:03:32;;;;;;;4.63;3.47;;;;;;;17.09;100.00;97379.84;5052439;28;20025;-82
2021/08/07 02:06:00;;;;;;;10.80;3.83;;;;;;;17.15;100.00;97374.88;5052717;28;20029;-81
2021/08/07 02:08:25;;;;;;;6.07;3.53;;;;;;;17.06;100.00;97374.22;5052159;28;20477;-84
2021/08/07 02:10:51;;;;;;;9.27;3.35;;;;;;;16.93;100.00;97384.50;5052568;28;20047;-82
2021/08/07 02:13:19;;;;;;;5.55;3.28;;;;;;;16.90;100.00;97379.69;5053466;28;20025;-84
2021/08/07 02:15:49;;;;;;;5.38;3.03;;;;;;;16.91;100.00;97381.31;5052128;28;20222;-86
2021/08/07 02:18:20;;;;;;;10.32;3.22;;;;;;;16.89;100.00;97380.81;5052031;28;20029;-84
2021/08/07 02:20:47;;;;;;;5.03;3.20;;;;;;;16.84;100.00;97380.28;5054095;28;20112;-85
2021/08/07 02:23:17;;;;;;;5.72;3.42;;;;;;;16.77;100.00;97383.63;5052953;28;20025;-82
2021/08/07 02:25:48;;;;;;;5.05;3.25;;;;;;;16.82;100.00;97390.88;5053764;28;20550;-84
2021/08/07 02:28:14;;;;;;;6.35;4.10;;;;;;;16.78;100.00;97381.69;5053884;28;20078;-83
2021/08/07 02:30:40;;;;;;;4.18;3.67;;;;;;;16.73;100.00;97374.41;5052822;28;20171;-85
2021/08/07 02:33:07;;;;;;;11.38;4.32;;;;;;;16.64;100.00;97378.47;5051888;28;20086;-85
2021/08/07 02:35:34;;;;;;;4.68;3.50;;;;;;;16.63;100.00;97372.16;5053935;28;20078;-83
2021/08/07 02:38:00;;;;;;;4.57;3.75;;;;;;;16.68;100.00;97382.97;5052127;28;20032;-83
2021/08/07 02:40:26;;;;;;;8.25;4.13;;;;;;;16.80;100.00;97376.59;5053153;28;20589;-85
2021/08/07 02:42:53;;;;;;;6.95;3.75;;;;;;;16.88;100.00;97370.13;5057695;28;20036;-82
2021/08/07 02:45:18;;;;;;;7.43;4.57;;;;;;;16.76;100.00;97359.91;5053601;28;20025;-83
2021/08/07 02:47:44;;;;;;;8.95;5.20;;;;;;;16.80;100.00;97371.88;5052140;28;20032;-84
2021/08/07 02:50:11;;;;;;;7.47;5.05;;;;;;;17.01;100.00;97380.78;5053174;28;20125;-84
2021/08/07 02:52:37;;;;;;;7.80;4.90;;;;;;;17.00;100.00;97378.38;5053429;28;20111;-84
2021/08/07 02:55:04;;;;;;;6.82;4.72;;;;;;;17.10;100.00;97384.19;5052170;28;20120;-84
2021/08/07 02:57:30;;;;;;;7.15;4.60;;;;;;;16.98;100.00;97386.19;5053313;28;20071;-87
2021/08/07 02:59:57;;;;;;;8.02;5.47;;;;;;;17.01;100.00;97385.50;5051884;28;20056;-84
2021/08/07 03:02:23;;;;;;;8.48;4.82;;;;;;;16.94;100.00;97383.38;5051661;28;20069;-86
2021/08/07 03:04:48;;;;;;;5.82;4.40;;;;;;;16.95;100.00;97393.25;5051729;28;20104;-83
2021/08/07 03:07:13;;;;;;;7.05;4.15;;;;;;;17.02;100.00;97393.44;5051230;28;20112;-85
2021/08/07 03:09:39;;;;;;;8.35;3.50;;;;;;;17.03;100.00;97392.31;5052851;28;20032;-85
2021/08/07 03:12:05;;;;;;;6.22;3.80;;;;;;;16.99;100.00;97388.63;5051520;28;20359;-84
2021/08/07 03:14:30;;;;;;;6.50;4.60;;;;;;;16.92;100.00;97380.13;5052388;28;20032;-84
2021/08/07 03:16:56;;;;;;;4.35;3.50;;;;;;;16.88;100.00;97386.72;5052519;28;20029;-84
2021/08/07 03:19:22;;;;;;;5.82;3.65;;;;;;;16.94;100.00;97397.19;5050081;28;20029;-85
2021/08/07 03:21:47;;;;;;;8.85;3.35;;;;;;;16.95;100.00;97382.19;5051073;28;20025;-84
2021/08/07 03:24:13;;;;;;;6.45;2.85;;;;;;;17.10;100.00;97386.19;5052316;28;20040;-85
2021/08/07 03:26:38;;;;;;;6.63;3.20;;;;;;;16.89;100.00;97378.06;5051568;28;20032;-84
2021/08/07 03:29:05;;;;;;;4.43;3.17;;;;;;;16.76;100.00;97384.78;5052164;28;20429;-83
2021/08/07 03:31:31;;;;;;;4.55;3.08;;;;;;;16.84;100.00;97386.59;5051016;28;20485;-81
2021/08/07 03:33:56;;;;;;;4.88;3.05;;;;;;;16.77;100.00;97380.88;5050532;28;20080;-82
2021/08/07 03:36:21;;;;;;;7.50;4.03;;;;;;;16.72;100.00;97378.34;5050183;28;20029;-80
2021/08/07 03:38:47;;;;;;;7.20;4.03;;;;;;;16.85;100.00;97373.59;5051424;28;20039;-84
2021/08/07 03:41:12;;;;;;;6.95;3.67;;;;;;;16.80;100.00;97368.31;5051372;28;20021;-82
2021/08/07 03:43:38;;;;;;;7.13;3.70;;;;;;;16.87;100.00;97377.63;5051729;28;20538;-80
2021/08/07 03:46:03;;;;;;;11.95;4.28;;;;;;;17.05;100.00;97387.22;5049707;28;20048;-84
2021/08/07 03:48:28;;;;;;;8.13;4.18;;;;;;;16.90;100.00;97376.09;5050210;28;20400;-82
2021/08/07 03:50:54;;;;;;;6.60;4.68;;;;;;;16.90;100.00;97390.72;5049713;28;20032;-81
2021/08/07 03:53:19;;;;;;;6.68;4.05;;;;;;;16.89;100.00;97393.84;5050043;28;20471;-85
2021/08/07 03:55:45;;;;;;;7.22;5.03;;;;;;;16.86;100.00;97398.09;5050135;28;20078;-82
2021/08/07 03:58:10;;;;;;;6.13;4.68;;;;;;;16.76;100.00;97382.00;5051454;28;20044;-82
2021/08/07 04:00:37;;;;;;;8.68;5.05;;;;;;;17.00;100.00;97397.72;5052211;28;20048;-84
2021/08/07 04:03:03;;;;;;;6.68;3.90;;;;;;;16.89;100.00;97396.59;5053085;28;20396;-80
2021/08/07 04:05:28;;;;;;;6.30;4.85;;;;;;;16.73;100.00;97402.03;5064327;28;20557;-82
2021/08/07 04:08:04;;;;;;;5.15;4.15;;;;;;;16.72;100.00;97411.50;5053764;28;20127;-81
2021/08/07 04:10:30;;;;;;;6.22;4.18;;;;;;;16.93;100.00;97400.28;5049573;28;20500;-81
2021/08/07 04:12:56;;;;;;;8.07;4.10;;;;;;;16.98;100.00;97409.13;5049832;28;20029;-82
2021/08/07 04:15:22;;;;;;;9.40;4.38;;;;;;;16.94;100.00;97411.00;5050664;28;20039;-80
2021/08/07 04:17:47;;;;;;;8.45;4.18;;;;;;;16.81;100.00;97414.94;5049313;28;20032;-81
2021/08/07 04:20:13;;;;;;;9.73;3.97;;;;;;;16.77;100.00;97389.16;5051097;28;20051;-80
2021/08/07 04:22:38;;;;;;;6.03;3.55;;;;;;;17.11;100.00;97402.41;5050921;28;20033;-81
2021/08/07 04:25:05;;;;;;;8.45;4.20;;;;;;;17.25;100.00;97404.78;5049381;28;20029;-82
2021/08/07 04:27:30;;;;;;;8.95;4.38;;;;;;;17.28;100.00;97406.03;5050119;28;20115;-82
2021/08/07 04:29:56;;;;;;;4.20;3.25;;;;;;;17.20;100.00;97396.72;5050807;28;20129;-85
2021/08/07 04:32:22;;;;;;;6.85;4.05;;;;;;;17.09;100.00;97399.19;5050464;28;20099;-81
2021/08/07 04:34:48;;;;;;;6.80;4.25;;;;;;;17.34;100.00;97405.41;5053916;28;20025;-80
2021/08/07 04:37:13;;;;;;;4.20;3.22;;;;;;;17.42;100.00;97401.69;5049429;28;20029;-82
2021/08/07 04:39:39;;;;;;;5.00;3.38;;;;;;;17.37;100.00;97401.13;5049267;28;20393;-81
2021/08/07 04:42:04;;;;;;;5.97;3.60;;;;;;;17.40;100.00;97403.19;5050681;28;20037;-80
2021/08/07 04:44:30;;;;;;;5.55;3.50;;;;;;;17.30;100.00;97406.47;5049379;28;20052;-81
2021/08/07 04:46:55;;;;;;;7.35;3.85;;;;;;;17.30;100.00;97403.69;5049823;28;20029;-84
2021/08/07 04:49:21;;;;;;;9.82;4.70;;;;;;;17.50;100.00;97405.47;5049333;28;20048;-81
2021/08/07 04:51:46;;;;;;;5.20;3.67;;;;;;;17.80;100.00;97416.94;5049140;28;20033;-82
2021/08/07 04:54:12;;;;;;;5.32;4.10;;;;;;;17.98;100.00;97419.00;5048901;28;20127;-80
2021/08/07 04:56:38;;;;;;;5.00;4.03;;;;;;;17.89;99.19;97395.44;5050149;28;20029;-81
2021/08/07 04:59:04;;;;;;;9.20;3.92;;;;;;;18.13;98.29;97409.13;5050639;28;20029;-81
2021/08/07 05:01:30;;;;;;;5.70;3.70;;;;;;;18.09;98.47;97424.81;5050319;28;20032;-82
2021/08/07 05:03:55;;;;;;;3.67;3.33;;;;;;;18.24;99.02;97426.78;5054277;28;20394;-81
2021/08/07 05:06:21;;;;;;;11.55;5.30;;;;;;;18.54;96.90;97418.84;5054200;28;20386;-80
2021/08/07 05:08:47;;;;;;;7.28;3.10;;;;;;;18.36;97.00;97428.66;5054071;28;20029;-80
2021/08/07 05:11:12;;;;;;;4.15;3.17;;;;;;;18.47;96.62;97429.72;5046151;28;20036;-82
2021/08/07 05:13:37;;;;;;;8.73;4.13;;;;;;;18.60;97.47;97437.59;5039092;28;20079;-81
2021/08/07 05:16:04;;;;;;;4.13;3.13;;;;;;;18.40;97.94;97432.31;5032224;28;20040;-80
2021/08/07 05:18:30;;;;;;;5.43;3.90;;;;;;;18.59;95.59;97437.94;5053416;28;20443;-79
2021/08/07 05:20:55;;;;;;;5.68;3.80;;;;;;;18.53;96.04;97431.09;5052841;28;20155;-82
2021/08/07 05:23:21;;;;;;;7.47;4.30;;;;;;;18.54;95.95;97446.56;5053313;28;20021;-80
2021/08/07 05:25:47;;;;;;;6.03;3.83;;;;;;;18.26;97.60;97443.06;5051961;28;20056;-80
2021/08/07 05:28:12;;;;;;;11.60;4.88;;;;;;;18.18;98.13;97440.09;5053007;28;20029;-80
2021/08/07 05:30:38;;;;;;;5.07;3.88;;;;;;;18.06;99.22;97450.47;5051662;28;20032;-80
2021/08/07 05:33:03;;;;;;;8.30;4.43;;;;;;;18.09;99.14;97456.09;5053062;28;20047;-80
2021/08/07 05:35:29;;;;;;;8.55;4.00;;;;;;;18.06;99.02;97448.50;5052522;28;20527;-80
2021/08/07 05:37:54;;;;;;;5.68;3.88;;;;;;;18.35;98.14;97446.44;5051650;28;20024;-81
2021/08/07 05:40:20;;;;;;;8.55;3.78;;;;;;;18.66;95.55;97444.47;5051977;28;20025;-82
2021/08/07 05:42:45;;;;;;;6.10;3.95;;;;;;;18.65;95.05;97439.28;5053254;28;20072;-80
2021/08/07 05:45:11;;;;;;;4.72;3.10;;;;;;;18.85;94.87;97456.75;5053089;28;20075;-79
2021/08/07 05:47:37;;;;;;;5.30;4.15;;;;;;;18.70;94.28;97450.09;5053296;28;20033;-82
2021/08/07 05:50:04;;;;;;;6.60;3.20;;;;;;;18.73;94.17;97443.03;5052022;28;20005;-83
2021/08/07 05:52:29;;;;;;;7.78;3.53;;;;;;;18.87;93.39;97452.47;5051918;28;20025;-80
2021/08/07 05:54:56;;;;;;;4.22;3.80;;;;;;;19.07;92.97;97448.56;5051491;28;20028;-79
2021/08/07 05:57:22;;;;;;;5.80;3.63;;;;;;;19.15;92.20;97442.00;5052447;28;20033;-78
2021/08/07 05:59:47;;;;;;;6.22;4.68;;;;;;;19.00;92.56;97440.09;5053217;28;20024;-76
2021/08/07 06:02:12;;;;;;;7.55;3.28;;;;;;;19.49;90.45;97450.63;5051796;28;20041;-77
2021/08/07 06:04:38;;;;;;;6.45;3.53;;;;;;;19.50;88.63;97441.16;5052481;28;20823;-78
2021/08/07 06:07:03;;;;;;;5.65;4.10;;;;;;;19.70;88.33;97442.75;5051380;28;20048;-78
2021/08/07 06:09:29;;;;;;;8.80;3.83;;;;;;;19.74;87.99;97432.50;5052636;28;20533;-78
2021/08/07 06:11:55;;;;;;;10.50;4.28;;;;;;;19.59;88.27;97444.50;5052598;28;20032;-77
2021/08/07 06:14:20;;;;;;;5.65;3.47;;;;;;;19.66;87.67;97441.88;5051347;28;20041;-78
2021/08/07 06:16:46;;;;;;;7.72;2.90;;;;;;;19.98;86.62;97442.47;5054533;28;20123;-77
2021/08/07 06:19:11;;;;;;;5.57;3.58;;;;;;;20.13;85.64;97434.03;5052140;28;20025;-76
2021/08/07 06:21:36;;;;;;;9.88;4.18;;;;;;;20.12;85.14;97437.97;5053928;28;20071;-76
2021/08/07 06:24:02;;;;;;;7.20;3.83;;;;;;;19.81;87.84;97442.94;5052119;28;20021;-76
2021/08/07 06:26:28;;;;;;;8.23;4.00;;;;;;;19.68;88.00;97439.53;5051886;28;20032;-76
2021/08/07 06:28:54;;;;;;;4.97;4.10;;;;;;;20.04;85.81;97427.91;5051876;28;20370;-76
2021/08/07 06:31:19;;;;;;;5.68;4.20;;;;;;;19.63;88.02;97431.50;5050365;28;20091;-76
2021/08/07 06:33:45;;;;;;;5.40;4.32;;;;;;;20.15;85.40;97434.44;5051790;28;20029;-76
2021/08/07 06:36:10;;;;;;;4.97;4.00;;;;;;;20.13;84.78;97430.44;5050249;28;20041;-76
2021/08/07 06:38:36;;;;;;;10.20;4.00;;;;;;;20.34;84.14;97443.91;5050082;28;20087;-75
2021/08/07 06:41:01;;;;;;;11.05;4.03;;;;;;;20.87;82.58;97448.34;5050425;28;20040;-74
2021/08/07 06:43:30;;;;;;;12.02;3.78;;;;;;;21.13;80.46;97448.34;5049985;28;20112;-76
2021/08/07 06:45:56;;;;;;;5.88;3.85;;;;;;;21.17;80.01;97446.44;5050265;28;20028;-78
2021/08/07 06:48:24;;;;;;;8.93;4.10;;;;;;;21.38;79.26;97447.88;5048717;28;20462;-75
2021/08/07 06:50:52;;;;;;;8.27;4.10;;;;;;;21.51;79.25;97458.41;5051053;28;20051;-75
2021/08/07 06:53:22;;;;;;;11.90;5.43;;;;;;;21.16;79.29;97447.59;5050187;28;20029;-75
2021/08/07 06:55:47;;;;;;;7.22;4.00;;;;;;;21.19;79.10;97444.06;5047720;28;20071;-75
2021/08/07 06:58:13;;;;;;;6.03;4.18;;;;;;;21.32;80.32;97461.31;5046078;28;20025;-75
2021/08/07 07:00:39;;;;;;;8.95;4.20;;;;;;;21.53;77.59;97455.22;5049788;28;20521;-75
2021/08/07 07:03:06;;;;;;;4.55;3.90;;;;;;;21.87;75.75;97454.81;5049838;28;20397;-75
2021/08/07 07:05:33;;;;;;;11.23;4.40;;;;;;;22.18;74.28;97461.94;5050303;28;20151;-76
2021/08/07 07:07:59;;;;;;;10.30;5.60;;;;;;;22.09;75.39;97464.22;5050085;28;20017;-74
2021/08/07 07:10:24;;;;;;;7.60;4.13;;;;;;;22.23;74.98;97456.03;5049576;28;20016;-75
2021/08/07 07:12:50;;;;;;;8.45;4.35;;;;;;;21.81;75.72;97455.53;5049712;28;20025;-76
2021/08/07 07:15:17;;;;;;;5.97;3.72;;;;;;;21.90;76.42;97453.28;5049606;28;20028;-74
2021/08/07 07:17:43;;;;;;;8.45;3.42;;;;;;;22.39;74.66;97453.78;5048141;28;20393;-74
2021/08/07 07:20:09;;;;;;;6.60;3.72;;;;;;;22.92;73.14;97459.00;5048405;28;20028;-75
2021/08/07 07:22:35;;;;;;;7.53;3.97;;;;;;;23.17;71.63;97457.19;5049330;28;20442;-76
2021/08/07 07:25:00;;;;;;;9.43;3.67;;;;;;;23.31;71.14;97454.44;5048162;28;20174;-74
2021/08/07 07:27:26;;;;;;;7.10;3.00;;;;;;;23.24;69.98;97462.78;5046799;28;20068;-75
2021/08/07 07:29:51;;;;;;;4.20;3.25;;;;;;;23.06;71.50;97453.50;5047303;28;20385;-74
2021/08/07 07:32:17;;;;;;;6.57;3.10;;;;;;;23.02;70.78;97461.06;5049349;28;20049;-74
2021/08/07 07:34:42;;;;;;;4.75;3.75;;;;;;;22.90;71.14;97455.78;5049269;28;20040;-75
2021/08/07 07:37:08;;;;;;;5.78;3.28;;;;;;;22.83;71.89;97455.75;5050256;28;20070;-75
2021/08/07 07:39:33;;;;;;;12.82;3.25;;;;;;;23.02;70.54;97451.91;5050372;28;20025;-75
2021/08/07 07:41:59;;;;;;;5.63;3.15;;;;;;;23.39;69.48;97461.72;5049736;28;20100;-78
2021/08/07 07:44:25;;;;;;;8.85;3.25;;;;;;;23.49;69.06;97460.16;5046108;28;20139;-78
2021/08/07 07:46:50;;;;;;;6.45;3.20;;;;;;;23.85;67.64;97455.50;5048500;28;20036;-75
2021/08/07 07:49:16;;;;;;;6.82;2.90;;;;;;;23.63;68.54;97443.44;5047714;28;20032;-75
2021/08/07 07:51:41;;;;;;;8.88;3.63;;;;;;;23.49;67.90;97445.41;5049371;28;20056;-78
2021/08/07 07:54:08;;;;;;;5.45;3.53;;;;;;;23.51;69.29;97438.22;5049294;28;20095;-77
2021/08/07 07:56:33;;;;;;;7.95;3.30;;;;;;;23.35;68.39;97444.09;5048746;28;20041;-75
2021/08/07 07:58:59;;;;;;;11.05;4.05;;;;;;;24.42;66.87;97448.84;5048715;28;20539;-75
2021/08/07 08:01:24;;;;;;;8.40;3.03;;;;;;;24.34;65.24;97450.03;5038279;28;20036;-75
2021/08/07 08:03:50;;;;;;;4.55;3.42;;;;;;;24.43;65.90;97447.63;5046529;28;20390;-76
2021/08/07 08:06:15;;;;;;;5.57;2.85;;;;;;;24.13;67.11;97447.22;5049026;28;20036;-76
2021/08/07 08:08:41;;;;;;;6.30;2.92;;;;;;;24.47;64.94;97447.63;5047453;28;20029;-76
2021/08/07 08:11:06;;;;;;;5.25;2.85;;;;;;;24.74;63.73;97448.84;5048017;28;20490;-74
2021/08/07 08:13:32;;;;;;;5.70;3.15;;;;;;;25.10;62.80;97437.63;5047446;28;20033;-75
2021/08/07 08:16:01;;;;;;;4.70;3.28;;;;;;;25.50;61.27;97443.53;5046038;28;20048;-76
2021/08/07 08:18:26;;;;;;;10.23;3.25;;;;;;;26.26;60.10;97445.56;5047833;28;20039;-76
2021/08/07 08:20:55;;;;;;;5.63;3.65;;;;;;;26.61;58.65;97439.69;5048002;28;20013;-74
2021/08/07 08:23:21;;;;;;;6.45;2.70;;;;;;;26.91;57.48;97441.06;5047968;28;20059;-76
2021/08/07 08:25:48;;;;;;;8.07;2.78;;;;;;;27.19;55.96;97445.63;5047404;28;20032;-76
2021/08/07 08:28:13;;;;;;;7.65;2.60;;;;;;;27.36;55.36;97439.78;5046636;28;20037;-74
2021/08/07 08:30:39;;;;;;;6.07;3.17;;;;;;;26.88;56.19;97425.84;5049431;28;20025;-76
2021/08/07 08:33:05;;;;;;;6.97;3.25;;;;;;;26.03;58.41;97426.44;5049499;28;20040;-75
2021/08/07 08:35:30;;;;;;;9.05;2.78;;;;;;;26.19;57.85;97417.56;5055901;28;20024;-77
2021/08/07 08:37:56;;;;;;;8.82;2.72;;;;;;;26.45;57.13;97421.78;5057786;28;20488;-76
2021/08/07 08:40:21;;;;;;;4.97;2.80;;;;;;;26.14;58.39;97423.59;5051278;28;20489;-76
2021/08/07 08:42:47;;;;;;;2.70;2.00;;;;;;;26.28;57.79;97426.31;5050449;28;20021;-78
2021/08/07 08:45:12;;;;;;;10.77;2.85;;;;;;;26.59;57.48;97428.06;5051439;28;20434;-75
2021/08/07 08:47:40;;;;;;;4.70;2.50;;;;;;;26.76;55.92;97429.13;5052666;28;20719;-80
2021/08/07 08:50:07;;;;;;;13.52;2.47;;;;;;;27.27;54.80;97431.06;5052313;28;20093;-79
2021/08/07 08:52:36;;;;;;;4.13;2.35;;;;;;;27.10;54.61;97426.41;5051389;28;20481;-77
2021/08/07 08:55:03;;;;;;;4.63;2.22;;;;;;;26.29;57.49;97419.50;5052228;28;20059;-76
2021/08/07 08:57:28;;;;;;;5.88;3.00;;;;;;;26.08;59.10;97416.81;5051975;28;20019;-75
2021/08/07 08:59:55;;;;;;;6.32;2.10;;;;;;;26.90;57.55;97428.25;5052278;28;20032;-75
2021/08/07 09:02:20;;;;;;;10.60;3.17;;;;;;;27.00;56.75;97418.94;5053000;28;20035;-74
2021/08/07 09:04:46;;;;;;;5.75;2.25;;;;;;;26.80;56.39;97423.50;5052896;28;20120;-75
2021/08/07 09:07:14;;;;;;;5.35;2.53;;;;;;;27.10;56.11;97421.59;5053182;28;20126;-75
2021/08/07 09:10:00;;;;;;;5.82;2.22;;;;;;;27.44;54.54;97413.22;5050923;28;20466;-74
2021/08/07 09:12:45;;;;;;;7.50;2.53;;;;;;;27.45;54.54;97412.00;5051961;28;20033;-75
2021/08/07 09:15:28;;;;;;;6.60;2.58;;;;;;;27.87;53.03;97402.25;5052559;28;20043;-76
2021/08/07 09:18:18;;;;;;;5.53;2.53;;;;;;;27.99;52.66;97398.03;5053514;28;20029;-73
2021/08/07 09:20:47;;;;;;;7.25;2.88;;;;;;;28.54;51.42;97401.22;5058119;28;20036;-77
2021/08/07 09:23:14;;;;;;;10.13;3.45;;;;;;;28.73;51.03;97401.72;5053574;28;20029;-76
2021/08/07 09:25:42;;;;;;;4.10;1.92;;;;;;;28.75;50.52;97399.31;5051676;28;20025;-76
2021/08/07 09:28:09;;;;;;;6.82;2.97;;;;;;;27.52;53.29;97381.00;5053363;28;20044;-76
2021/08/07 09:30:37;;;;;;;6.10;2.55;;;;;;;27.41;55.19;97391.53;5053514;28;20025;-76
2021/08/07 09:33:10;;;;;;;4.28;2.22;;;;;;;28.01;52.76;97384.34;5046614;28;20049;-76
2021/08/07 09:35:36;;;;;;;7.32;1.95;;;;;;;28.29;51.29;97377.53;5035431;28;20116;-76
2021/08/07 09:38:08;;;;;;;3.53;1.85;;;;;;;28.68;48.77;97375.69;5032584;28;20017;-75
2021/08/07 09:40:50;;;;;;;5.50;2.53;;;;;;;28.72;50.38;97369.19;5051235;28;20528;-75
2021/08/07 09:43:24;;;;;;;2.22;1.63;;;;;;;28.65;49.98;97367.28;5051350;28;20033;-74
2021/08/07 09:45:58;;;;;;;3.28;2.47;;;;;;;28.81;49.60;97370.22;5050473;28;20087;-73
2021/08/07 09:48:47;;;;;;;4.20;1.92;;;;;;;28.95;49.22;97363.50;5049801;28;20025;-75
2021/08/07 09:51:19;;;;;;;6.70;2.60;;;;;;;29.53;48.46;97359.97;5041187;28;20429;-75
2021/08/07 09:53:58;;;;;;;7.47;1.80;;;;;;;29.62;47.67;97365.00;5034145;28;20034;-74
2021/08/07 09:56:23;;;;;;;5.35;1.83;;;;;;;29.51;47.68;97362.41;5053046;28;20052;-73
2021/08/07 09:58:49;;;;;;;4.22;1.65;;;;;;;29.72;47.36;97361.16;5052010;28;20052;-76
2021/08/07 10:01:28;;;;;;;6.05;1.80;;;;;;;30.13;46.99;97358.63;5052140;28;20053;-73
2021/08/07 10:04:08;;;;;;;4.07;2.00;;;;;;;30.17;47.34;97355.69;5052015;28;20018;-73
2021/08/07 10:06:36;;;;;;;3.97;1.70;;;;;;;30.25;47.10;97365.59;5052350;28;20033;-73
2021/08/07 10:09:03;;;;;;;7.25;2.17;;;;;;;30.04;45.95;97357.66;5051937;28;20704;-72
2021/08/07 10:11:29;;;;;;;3.80;1.58;;;;;;;30.00;46.74;97354.09;5052302;28;20118;-73
2021/08/07 10:13:55;;;;;;;2.40;1.60;;;;;;;30.30;45.69;97356.59;5052228;28;20053;-74
2021/08/07 10:16:22;;;;;;;3.90;1.60;;;;;;;30.68;44.36;97359.69;5052121;28;20031;-73
2021/08/07 10:18:49;;;;;;;3.58;1.60;;;;;;;31.01;43.88;97366.13;5051823;28;20036;-77
2021/08/07 10:21:15;;;;;;;6.32;2.17;;;;;;;31.08;43.28;97363.09;5052340;28;20064;-73
2021/08/07 10:23:41;;;;;;;2.75;1.73;;;;;;;31.02;43.80;97351.53;5051934;28;20035;-72
2021/08/07 10:26:11;;;;;;;4.13;1.83;;;;;;;30.62;43.86;97339.69;5052113;28;20029;-76
2021/08/07 10:28:47;;;;;;;7.25;1.70;;;;;;;30.54;45.42;97349.56;5050402;28;20104;-72
2021/08/07 10:31:15;;;;;;;7.10;1.92;;;;;;;29.15;47.56;97342.59;5050468;28;20029;-74
2021/08/07 10:33:44;;;;;;;6.93;2.45;;;;;;;28.85;48.45;97336.38;5037245;28;20114;-74
2021/08/07 10:36:15;;;;;;;4.40;2.10;;;;;;;29.29;48.75;97341.53;5052245;28;20390;-75
2021/08/07 10:38:42;;;;;;;6.95;2.33;;;;;;;29.66;46.48;97343.97;5050824;28;20732;-74
2021/08/07 10:41:08;;;;;;;5.15;2.60;;;;;;;29.75;47.13;97330.06;5051618;28;20033;-73
2021/08/07 10:43:39;;;;;;;4.97;1.90;;;;;;;29.19;48.13;97334.88;5052026;28;20107;-73
2021/08/07 10:46:07;;;;;;;3.15;1.85;;;;;;;29.63;47.83;97335.59;5050375;28;20029;-73
2021/08/07 10:48:35;;;;;;;7.07;2.08;;;;;;;29.45;47.59;97330.31;5051770;28;20093;-74
2021/08/07 10:51:20;;;;;;;3.55;2.20;;;;;;;29.05;48.30;97332.31;5049099;28;20457;-77
2021/08/07 10:53:47;;;;;;;5.28;3.45;;;;;;;29.07;49.20;97320.63;5061579;28;20059;-75
2021/08/07 10:56:28;;;;;;;6.53;2.10;;;;;;;29.43;48.39;97321.50;5050899;28;20470;-74
2021/08/07 10:59:14;;;;;;;2.95;1.65;;;;;;;29.26;48.25;97317.03;5050987;28;20025;-75
2021/08/07 11:01:44;;;;;;;2.70;1.77;;;;;;;29.19;48.94;97314.34;5050046;28;20095;-75
2021/08/07 11:04:11;;;;;;;8.18;1.73;;;;;;;28.64;48.27;97314.97;5049191;28;20608;-74
2021/08/07 11:06:43;;;;;;;4.97;1.98;;;;;;;28.81;49.21;97307.47;5051441;28;20079;-74
2021/08/07 11:09:33;;;;;;;3.50;1.83;;;;;;;28.87;50.08;97311.38;5050078;28;20056;-74
2021/08/07 11:12:11;;;;;;;5.38;1.98;;;;;;;28.88;49.78;97296.84;5039509;28;20127;-74
2021/08/07 11:14:55;;;;;;;3.60;1.90;;;;;;;29.55;47.16;97297.47;5049948;28;20501;-75
2021/08/07 11:17:21;;;;;;;3.95;1.60;;;;;;;30.16;46.63;97297.69;5050751;28;20032;-73
2021/08/07 11:20:06;;;;;;;5.22;2.03;;;;;;;29.68;46.67;97301.22;5050945;28;20386;-75
2021/08/07 11:22:32;;;;;;;3.72;1.75;;;;;;;30.02;45.86;97283.91;5050938;28;20517;-74
2021/08/07 11:25:09;;;;;;;4.82;2.83;;;;;;;30.24;45.74;97299.09;5049730;28;20124;-74
2021/08/07 11:27:47;;;;;;;4.30;1.55;;;;;;;30.26;45.12;97299.44;5051376;28;20025;-73
2021/08/07 11:30:18;;;;;;;2.45;1.33;;;;;;;30.08;44.63;97293.44;5050012;28;20056;-79
2021/08/07 11:32:56;;;;;;;2.80;1.90;;;;;;;30.52;45.84;97286.28;5049764;28;20044;-87